createdAt,value
2022-11-27T00:01:13.829Z,102638.34
2022-11-27T00:03:41.300Z,102625.91
2022-11-27T00:06:11.721Z,102622.31
2022-11-27T00:08:38.209Z,102619.53
2022-11-27T00:11:09.803Z,102625.56
2022-11-27T00:13:36.475Z,102620.34
2022-11-27T00:16:04.546Z,102609.88
2022-11-27T00:18:31.183Z,102602.84
2022-11-27T00:21:06.007Z,102599.41
2022-11-27T00:23:33.533Z,102602.03
2022-11-27T00:26:00.226Z,102602.84
2022-11-27T00:28:26.890Z,102594.34
2022-11-27T00:30:53.406Z,102592.03
2022-11-27T00:33:19.927Z,102588.59
2022-11-27T00:35:46.592Z,102579.28
2022-11-27T00:38:13.066Z,102584.06
2022-11-27T00:40:39.598Z,102585.22
2022-11-27T00:43:06.153Z,102582.75
2022-11-27T00:45:32.561Z,102578.03
2022-11-27T00:47:59.077Z,102578.50
2022-11-27T00:50:25.645Z,102589.78
2022-11-27T00:52:52.117Z,102590.59
2022-11-27T00:55:18.752Z,102580.31
2022-11-27T00:57:45.284Z,102588.31
2022-11-27T01:00:12.585Z,102581.63
2022-11-27T01:02:39.055Z,102578.19
2022-11-27T01:05:05.999Z,102577.53
2022-11-27T01:07:32.693Z,102577.19
2022-11-27T01:09:59.347Z,102577.19
2022-11-27T01:12:25.822Z,102574.56
2022-11-27T01:14:52.341Z,102571.31
2022-11-27T01:17:18.811Z,102576.88
2022-11-27T01:19:45.284Z,102562.66
2022-11-27T01:22:11.770Z,102550.53
2022-11-27T01:24:38.600Z,102551.53
2022-11-27T01:27:05.746Z,102537.78
2022-11-27T01:29:32.199Z,102542.22
2022-11-27T01:31:58.660Z,102547.94
2022-11-27T01:34:25.111Z,102543.34
2022-11-27T01:36:51.748Z,102543.84
2022-11-27T01:39:20.116Z,102541.72
2022-11-27T01:41:48.234Z,102538.13
2022-11-27T01:44:23.507Z,102529.28
2022-11-27T01:47:07.333Z,102524.06
2022-11-27T01:49:39.568Z,102522.91
2022-11-27T01:52:16.972Z,102511.78
2022-11-27T01:54:52.473Z,102506.41
2022-11-27T01:57:28.892Z,102500.34
2022-11-27T01:59:58.069Z,102494.78
2022-11-27T02:02:24.613Z,102483.50
2022-11-27T02:04:51.400Z,102480.88
2022-11-27T02:07:18.026Z,102470.59
2022-11-27T02:09:44.721Z,102476.81
2022-11-27T02:12:41.635Z,102477.47
2022-11-27T02:15:20.319Z,102470.59
2022-11-27T02:17:59.119Z,102457.50
2022-11-27T02:20:51.443Z,102451.63
2022-11-27T02:23:42.709Z,102451.47
2022-11-27T02:26:32.433Z,102439.53
2022-11-27T02:29:05.924Z,102444.13
2022-11-27T02:32:05.980Z,102444.44
2022-11-27T02:34:53.762Z,102448.88
2022-11-27T02:37:20.171Z,102461.13
2022-11-27T02:40:07.021Z,102458.34
2022-11-27T02:42:45.999Z,102460.78
2022-11-27T02:45:23.651Z,102462.25
2022-11-27T02:47:50.765Z,102455.22
2022-11-27T02:50:21.956Z,102454.25
2022-11-27T02:52:50.435Z,102451.63
2022-11-27T02:55:21.653Z,102442.81
2022-11-27T02:57:50.963Z,102448.69
2022-11-27T03:00:18.075Z,102440.00
2022-11-27T03:02:50.003Z,102451.94
2022-11-27T03:05:20.457Z,102457.19
2022-11-27T03:07:54.219Z,102447.38
2022-11-27T03:10:36.249Z,102441.47
2022-11-27T03:13:03.431Z,102439.03
2022-11-27T03:15:45.457Z,102441.66
2022-11-27T03:18:47.775Z,102442.63
2022-11-27T03:21:36.531Z,102441.66
2022-11-27T03:24:03.536Z,102446.88
2022-11-27T03:26:31.216Z,102452.13
2022-11-27T03:29:01.069Z,102457.50
2022-11-27T03:31:28.114Z,102449.50
2022-11-27T03:33:55.051Z,102458.16
2022-11-27T03:36:22.110Z,102447.69
2022-11-27T03:38:51.289Z,102437.41
2022-11-27T03:41:25.060Z,102434.78
2022-11-27T03:44:17.393Z,102432.34
2022-11-27T03:46:49.658Z,102424.66
2022-11-27T03:49:35.287Z,102423.84
2022-11-27T03:52:12.948Z,102422.53
2022-11-27T03:54:56.602Z,102418.94
2022-11-27T03:57:38.048Z,102421.72
2022-11-27T04:00:08.251Z,102414.84
2022-11-27T04:02:47.591Z,102415.69
2022-11-27T04:05:15.040Z,102417.31
2022-11-27T04:07:42.124Z,102411.25
2022-11-27T04:10:09.779Z,102412.06
2022-11-27T04:12:36.306Z,102409.63
2022-11-27T04:15:03.181Z,102429.75
2022-11-27T04:17:29.646Z,102430.56
2022-11-27T04:19:56.049Z,102432.34
2022-11-27T04:22:22.777Z,102423.84
2022-11-27T04:24:49.272Z,102427.28
2022-11-27T04:27:15.990Z,102433.66
2022-11-27T04:29:42.547Z,102425.81
2022-11-27T04:32:09.190Z,102425.81
2022-11-27T04:34:35.725Z,102421.25
2022-11-27T04:37:02.292Z,102425.50
2022-11-27T04:39:28.813Z,102408.00
2022-11-27T04:41:55.240Z,102407.19
2022-11-27T04:44:22.808Z,102399.34
2022-11-27T04:46:50.039Z,102394.28
2022-11-27T04:49:16.695Z,102390.84
2022-11-27T04:51:43.410Z,102395.25
2022-11-27T04:54:09.871Z,102394.44
2022-11-27T04:56:36.324Z,102393.63
2022-11-27T04:59:02.790Z,102389.03
2022-11-27T05:01:29.368Z,102384.63
2022-11-27T05:03:55.875Z,102376.78
2022-11-27T05:06:22.801Z,102374.16
2022-11-27T05:08:49.720Z,102367.28
2022-11-27T05:11:17.635Z,102370.56
2022-11-27T05:13:45.037Z,102369.56
2022-11-27T05:16:12.628Z,102365.97
2022-11-27T05:18:39.131Z,102362.38
2022-11-27T05:21:08.007Z,102352.91
2022-11-27T05:23:35.464Z,102350.94
2022-11-27T05:26:03.388Z,102348.31
2022-11-27T05:28:30.002Z,102340.94
2022-11-27T05:30:56.602Z,102338.16
2022-11-27T05:33:23.222Z,102336.53
2022-11-27T05:35:49.668Z,102338.97
2022-11-27T05:38:16.185Z,102330.31
2022-11-27T05:40:42.652Z,102333.56
2022-11-27T05:43:09.116Z,102336.66
2022-11-27T05:45:37.735Z,102324.41
2022-11-27T05:48:04.408Z,102327.03
2022-11-27T05:50:31.012Z,102313.78
2022-11-27T05:52:57.483Z,102323.41
2022-11-27T05:55:24.026Z,102330.09
2022-11-27T05:57:50.555Z,102321.44
2022-11-27T06:00:17.474Z,102322.09
2022-11-27T06:02:44.009Z,102323.06
2022-11-27T06:05:10.618Z,102324.06
2022-11-27T06:07:37.177Z,102314.41
2022-11-27T06:10:04.148Z,102319.66
2022-11-27T06:12:32.144Z,102316.22
2022-11-27T06:14:58.642Z,102309.34
2022-11-27T06:17:25.106Z,102316.22
2022-11-27T06:19:51.749Z,102327.50
2022-11-27T06:22:18.182Z,102316.22
2022-11-27T06:24:44.627Z,102311.97
2022-11-27T06:27:11.048Z,102315.41
2022-11-27T06:29:38.332Z,102305.75
2022-11-27T06:32:05.694Z,102306.72
2022-11-27T06:34:32.320Z,102300.69
2022-11-27T06:36:58.792Z,102299.88
2022-11-27T06:39:25.426Z,102292.03
2022-11-27T06:41:51.926Z,102287.78
2022-11-27T06:44:18.508Z,102280.75
2022-11-27T06:46:44.953Z,102290.41
2022-11-27T06:49:11.434Z,102286.78
2022-11-27T06:51:38.207Z,102286.78
2022-11-27T06:54:04.809Z,102286.78
2022-11-27T06:56:32.331Z,102283.19
2022-11-27T06:59:00.526Z,102283.19
2022-11-27T07:01:29.208Z,102288.41
2022-11-27T07:03:56.304Z,102290.06
2022-11-27T07:06:25.112Z,102284.81
2022-11-27T07:08:53.083Z,102275.16
2022-11-27T07:11:22.511Z,102271.56
2022-11-27T07:13:50.743Z,102264.69
2022-11-27T07:16:18.481Z,102265.34
2022-11-27T07:18:51.116Z,102249.66
2022-11-27T07:21:18.078Z,102248.84
2022-11-27T07:23:45.239Z,102241.81
2022-11-27T07:26:14.859Z,102242.63
2022-11-27T07:28:43.810Z,102242.63
2022-11-27T07:31:11.725Z,102234.94
2022-11-27T07:33:38.400Z,102224.66
2022-11-27T07:36:08.170Z,102228.88
2022-11-27T07:38:35.032Z,102221.84
2022-11-27T07:41:03.368Z,102221.69
2022-11-27T07:43:31.388Z,102216.78
2022-11-27T07:45:58.042Z,102222.50
2022-11-27T07:48:25.254Z,102217.44
2022-11-27T07:50:51.726Z,102219.06
2022-11-27T07:53:18.300Z,102219.06
2022-11-27T07:55:44.822Z,102210.41
2022-11-27T07:58:11.508Z,102217.25
2022-11-27T08:00:38.464Z,102214.47
2022-11-27T08:03:05.306Z,102217.72
2022-11-27T08:05:35.529Z,102213.09
2022-11-27T08:11:52.487Z,102214.38
2022-11-27T08:14:19.476Z,102210.78
2022-11-27T08:16:46.196Z,102204.56
2022-11-27T08:19:13.324Z,102210.25
2022-11-27T08:21:40.030Z,102207.47
2022-11-27T08:24:06.884Z,102198.81
2022-11-27T08:26:33.539Z,102196.00
2022-11-27T08:29:00.047Z,102200.09
2022-11-27T08:31:26.687Z,102196.47
2022-11-27T08:33:53.213Z,102196.31
2022-11-27T08:36:19.845Z,102199.56
2022-11-27T08:38:47.033Z,102202.66
2022-11-27T08:41:14.295Z,102206.06
2022-11-27T08:43:40.776Z,102198.03
2022-11-27T08:46:07.851Z,102199.84
2022-11-27T08:48:35.088Z,102198.88
2022-11-27T08:51:07.150Z,102202.13
2022-11-27T08:53:34.023Z,102190.66
2022-11-27T08:56:19.322Z,102197.34
2022-11-27T08:58:46.580Z,102192.91
2022-11-27T09:01:20.296Z,102212.69
2022-11-27T09:03:47.904Z,102205.44
2022-11-27T09:06:17.105Z,102205.28
2022-11-27T09:08:44.853Z,102203.28
2022-11-27T09:11:12.940Z,102196.25
2022-11-27T09:13:40.472Z,102199.50
2022-11-27T09:16:13.366Z,102194.91
2022-11-27T09:18:40.647Z,102202.41
2022-11-27T09:21:09.731Z,102190.78
2022-11-27T09:23:37.724Z,102197.47
2022-11-27T09:26:07.020Z,102194.50
2022-11-27T09:28:34.281Z,102192.31
2022-11-27T09:31:02.661Z,102191.16
2022-11-27T09:33:31.455Z,102191.78
2022-11-27T09:36:03.092Z,102188.00
2022-11-27T09:38:29.645Z,102183.41
2022-11-27T09:41:07.087Z,102194.34
2022-11-27T09:43:41.367Z,102186.28
2022-11-27T09:46:17.676Z,102188.38
2022-11-27T09:48:49.220Z,102177.72
2022-11-27T09:51:25.918Z,102170.50
2022-11-27T09:54:00.649Z,102166.53
2022-11-27T09:56:27.821Z,102162.38
2022-11-27T09:58:59.440Z,102152.97
2022-11-27T10:01:38.446Z,102161.09
2022-11-27T10:04:15.287Z,102151.22
2022-11-27T10:07:06.828Z,102150.44
2022-11-27T10:09:54.868Z,102151.84
2022-11-27T10:12:44.843Z,102143.63
2022-11-27T10:15:25.060Z,102147.69
2022-11-27T10:18:04.586Z,102136.66
2022-11-27T10:20:37.250Z,102137.28
2022-11-27T10:23:10.140Z,102133.66
2022-11-27T10:25:52.215Z,102135.91
2022-11-27T10:28:37.769Z,102125.06
2022-11-27T10:31:21.384Z,102123.50
2022-11-27T10:33:54.756Z,102121.06
2022-11-27T10:36:29.300Z,102115.66
2022-11-27T10:38:58.176Z,102123.16
2022-11-27T10:44:30.117Z,102113.28
2022-11-27T10:47:02.571Z,102114.91
2022-11-27T10:49:29.233Z,102109.25
2022-11-27T10:51:55.753Z,102105.09
2022-11-27T10:54:27.950Z,102096.66
2022-11-27T10:57:27.990Z,102096.53
2022-11-27T11:00:15.729Z,102086.50
2022-11-27T11:02:42.507Z,102079.88
2022-11-27T11:05:50.965Z,102074.44
2022-11-27T11:08:16.602Z,102073.25
2022-11-27T11:10:57.314Z,102061.56
2022-11-27T11:13:27.925Z,102063.78
2022-11-27T11:15:55.904Z,102059.78
2022-11-27T11:18:26.368Z,102066.47
2022-11-27T11:27:47.192Z,102049.19
2022-11-27T11:38:04.899Z,102019.88
2022-11-27T11:45:01.382Z,102012.44
2022-11-27T11:47:28.082Z,102008.41
2022-11-27T11:49:56.450Z,102002.34
2022-11-27T11:52:45.845Z,101996.91
2022-11-27T11:55:19.951Z,102000.53
2022-11-27T11:57:58.557Z,101988.41
2022-11-27T12:04:22.180Z,101978.88
2022-11-27T12:11:18.332Z,101964.16
2022-11-27T12:13:57.791Z,101956.69
2022-11-27T12:17:02.865Z,101957.75
2022-11-27T12:19:58.026Z,101950.84
2022-11-27T12:22:45.928Z,101949.66
2022-11-27T12:25:32.716Z,101936.34
2022-11-27T12:28:19.877Z,101934.50
2022-11-27T12:30:52.252Z,101919.97
2022-11-27T12:33:19.185Z,101912.06
2022-11-27T12:36:14.917Z,101916.50
2022-11-27T12:39:00.996Z,101913.69
2022-11-27T12:41:48.802Z,101920.16
2022-11-27T12:44:45.130Z,101919.34
2022-11-27T12:47:29.775Z,101919.94
2022-11-27T12:50:02.943Z,101915.28
2022-11-27T12:52:34.597Z,101910.03
2022-11-27T12:55:06.960Z,101893.25
2022-11-27T12:57:42.002Z,101883.38
2022-11-27T13:00:16.548Z,101887.41
2022-11-27T13:03:08.375Z,101886.41
2022-11-27T13:05:58.038Z,101884.19
2022-11-27T13:08:31.657Z,101891.63
2022-11-27T13:11:06.792Z,101878.72
2022-11-27T13:13:43.327Z,101881.31
2022-11-27T13:16:18.933Z,101873.84
2022-11-27T13:18:51.906Z,101876.06
2022-11-27T13:21:31.288Z,101865.94
2022-11-27T13:24:01.296Z,101868.56
2022-11-27T13:29:39.686Z,101869.56
2022-11-27T13:32:07.994Z,101870.56
2022-11-27T13:34:44.321Z,101861.06
2022-11-27T13:37:32.792Z,101858.66
2022-11-27T13:40:07.942Z,101854.41
2022-11-27T13:42:36.895Z,101856.44
2022-11-27T13:45:11.102Z,101851.97
2022-11-27T13:47:43.736Z,101843.69
2022-11-27T13:50:17.939Z,101838.84
2022-11-27T13:52:57.217Z,101833.97
2022-11-27T13:55:35.997Z,101830.75
2022-11-27T13:58:04.152Z,101820.00
2022-11-27T14:00:43.971Z,101815.16
2022-11-27T14:08:03.158Z,101814.13
2022-11-27T14:14:42.109Z,101792.53
2022-11-27T14:20:57.940Z,101789.28
2022-11-27T14:23:36.571Z,101785.84
2022-11-27T14:26:15.752Z,101787.84
2022-11-27T14:28:45.334Z,101778.97
2022-11-27T14:31:33.404Z,101782.41
2022-11-27T14:34:23.174Z,101781.81
2022-11-27T14:36:52.109Z,101774.75
2022-11-27T14:39:29.345Z,101775.94
2022-11-27T14:42:04.152Z,101763.84
2022-11-27T14:44:31.636Z,101768.25
2022-11-27T14:47:02.437Z,101752.72
2022-11-27T14:49:30.624Z,101745.84
2022-11-27T14:52:02.112Z,101755.53
2022-11-27T14:54:32.599Z,101754.72
2022-11-27T14:56:59.155Z,101741.19
2022-11-27T14:59:26.092Z,101741.59
2022-11-27T15:02:14.086Z,101737.97
2022-11-27T15:04:42.522Z,101738.16
2022-11-27T15:07:28.052Z,101726.84
2022-11-27T15:09:57.440Z,101735.91
2022-11-27T15:12:28.460Z,101741.38
2022-11-27T15:15:20.195Z,101733.50
2022-11-27T15:17:51.633Z,101736.13
2022-11-27T15:20:39.370Z,101737.94
2022-11-27T15:23:17.533Z,101733.06
2022-11-27T15:25:50.256Z,101721.78
2022-11-27T15:28:41.324Z,101716.72
2022-11-27T15:31:31.504Z,101719.34
2022-11-27T15:34:30.045Z,101709.88
2022-11-27T15:36:59.649Z,101701.19
2022-11-27T15:39:38.969Z,101682.84
2022-11-27T15:42:09.816Z,101690.69
2022-11-27T15:44:36.587Z,101683.06
2022-11-27T15:47:04.567Z,101683.06
2022-11-27T15:49:31.167Z,101682.06
2022-11-27T15:51:57.904Z,101678.41
2022-11-27T15:54:25.292Z,101672.34
2022-11-27T15:56:51.845Z,101674.97
2022-11-27T15:59:20.774Z,101677.59
2022-11-27T16:01:48.123Z,101678.41
2022-11-27T16:04:14.664Z,101678.19
2022-11-27T16:06:41.325Z,101671.16
2022-11-27T16:09:07.882Z,101678.00
2022-11-27T16:11:34.405Z,101676.19
2022-11-27T16:14:00.994Z,101665.91
2022-11-27T16:16:27.528Z,101668.31
2022-11-27T16:19:01.636Z,101667.31
2022-11-27T16:21:30.057Z,101660.47
2022-11-27T16:24:01.196Z,101657.63
2022-11-27T16:26:28.189Z,101649.78
2022-11-27T16:28:55.243Z,101646.16
2022-11-27T16:31:22.384Z,101641.72
2022-11-27T16:33:49.157Z,101639.09
2022-11-27T16:36:18.316Z,101630.22
2022-11-27T16:38:45.477Z,101628.41
2022-11-27T16:41:17.528Z,101631.03
2022-11-27T16:43:46.819Z,101617.91
2022-11-27T16:46:16.188Z,101615.28
2022-11-27T16:48:44.411Z,101610.66
2022-11-27T16:51:17.914Z,101614.28
2022-11-27T16:53:47.635Z,101609.84
2022-11-27T16:56:17.423Z,101597.75
2022-11-27T16:58:45.796Z,101596.94
2022-11-27T17:01:15.617Z,101590.88
2022-11-27T17:03:42.707Z,101590.88
2022-11-27T17:06:26.333Z,101591.69
2022-11-27T17:08:57.509Z,101585.84
2022-11-27T17:11:26.544Z,101583.81
2022-11-27T17:13:56.145Z,101591.69
2022-11-27T17:16:24.481Z,101574.34
2022-11-27T17:18:53.751Z,101575.34
2022-11-27T17:21:27.338Z,101591.06
2022-11-27T17:23:59.394Z,101577.16
2022-11-27T17:26:29.312Z,101571.09
2022-11-27T17:28:56.498Z,101567.47
2022-11-27T17:31:40.507Z,101567.47
2022-11-27T17:34:07.967Z,101569.50
2022-11-27T17:36:37.438Z,101567.88
2022-11-27T17:39:05.649Z,101567.06
2022-11-27T17:41:32.446Z,101558.38
2022-11-27T17:43:59.110Z,101563.63
2022-11-27T17:46:27.420Z,101555.78
2022-11-27T17:48:55.495Z,101548.91
2022-11-27T17:51:22.354Z,101545.72
2022-11-27T17:53:49.068Z,101541.47
2022-11-27T17:56:19.209Z,101537.25
2022-11-27T17:58:46.361Z,101545.72
2022-11-27T18:01:28.415Z,101536.44
2022-11-27T18:03:57.162Z,101531.19
2022-11-27T18:06:23.730Z,101532.00
2022-11-27T18:08:50.297Z,101519.28
2022-11-27T18:11:17.912Z,101521.09
2022-11-27T18:13:44.637Z,101521.09
2022-11-27T18:16:14.277Z,101507.97
2022-11-27T18:18:41.365Z,101507.38
2022-11-27T18:21:15.285Z,101504.16
2022-11-27T18:24:14.414Z,101497.91
2022-11-27T18:26:52.363Z,101497.28
2022-11-27T18:29:18.245Z,101492.84
2022-11-27T18:31:45.913Z,101488.63
2022-11-27T18:34:12.480Z,101494.06
2022-11-27T18:36:38.967Z,101489.00
2022-11-27T18:39:05.558Z,101490.03
2022-11-27T18:41:32.216Z,101487.59
2022-11-27T18:43:58.757Z,101478.94
2022-11-27T18:46:25.427Z,101474.69
2022-11-27T18:48:52.207Z,101475.50
2022-11-27T18:51:24.492Z,101470.47
2022-11-27T18:53:51.585Z,101469.84
2022-11-27T18:56:29.399Z,101470.66
2022-11-27T18:59:00.117Z,101462.78
2022-11-27T19:01:30.181Z,101461.38
2022-11-27T19:03:59.617Z,101461.38
2022-11-27T19:06:26.580Z,101452.72
2022-11-27T19:08:53.088Z,101456.94
2022-11-27T19:11:24.540Z,101450.91
2022-11-27T19:13:54.426Z,101446.47
2022-11-27T19:16:27.326Z,101443.03
2022-11-27T19:18:56.891Z,101446.47
2022-11-27T19:21:26.570Z,101438.81
2022-11-27T19:23:53.545Z,101434.56
2022-11-27T19:26:22.951Z,101428.72
2022-11-27T19:28:54.577Z,101426.09
2022-11-27T19:31:22.757Z,101425.50
2022-11-27T19:33:54.192Z,101430.72
2022-11-27T19:36:34.188Z,101426.50
2022-11-27T19:39:04.506Z,101424.69
2022-11-27T19:41:31.440Z,101422.25
2022-11-27T19:44:00.337Z,101422.25
2022-11-27T19:46:30.038Z,101416.41
2022-11-27T19:48:59.049Z,101415.41
2022-11-27T19:51:27.085Z,101405.13
2022-11-27T19:53:53.784Z,101401.69
2022-11-27T19:56:20.536Z,101394.88
2022-11-27T19:58:47.131Z,101389.63
2022-11-27T20:01:18.240Z,101390.63
2022-11-27T20:03:46.143Z,101383.78
2022-11-27T20:06:15.891Z,101382.97
2022-11-27T20:08:43.400Z,101381.16
2022-11-27T20:11:13.112Z,101373.31
2022-11-27T20:13:39.813Z,101369.88
2022-11-27T20:16:11.436Z,101358.59
2022-11-27T20:18:38.738Z,101356.16
2022-11-27T20:21:07.028Z,101351.13
2022-11-27T20:23:33.702Z,101355.38
2022-11-27T20:26:00.550Z,101344.88
2022-11-27T20:28:27.056Z,101343.66
2022-11-27T20:30:58.618Z,101343.88
2022-11-27T20:33:25.786Z,101335.22
2022-11-27T20:35:52.510Z,101334.59
2022-11-27T20:38:19.063Z,101327.56
2022-11-27T20:40:45.725Z,101325.94
2022-11-27T20:43:12.432Z,101331.19
2022-11-27T20:45:40.618Z,101325.13
2022-11-27T20:48:08.840Z,101319.09
2022-11-27T20:50:37.057Z,101314.84
2022-11-27T20:53:04.178Z,101316.66
2022-11-27T20:55:30.831Z,101309.00
2022-11-27T20:57:57.535Z,101307.19
2022-11-27T21:00:24.329Z,101305.38
2022-11-27T21:02:50.885Z,101305.38
2022-11-27T21:05:17.591Z,101297.31
2022-11-27T21:07:44.072Z,101294.09
2022-11-27T21:10:13.904Z,101297.72
2022-11-27T21:12:40.771Z,101289.06
2022-11-27T21:15:08.255Z,101289.88
2022-11-27T21:17:35.143Z,101289.06
2022-11-27T21:20:01.784Z,101286.44
2022-11-27T21:22:28.872Z,101285.63
2022-11-27T21:24:55.328Z,101286.44
2022-11-27T21:27:22.078Z,101279.59
2022-11-27T21:29:48.797Z,101285.44
2022-11-27T21:32:17.912Z,101279.19
2022-11-27T21:34:44.629Z,101270.31
2022-11-27T21:37:11.251Z,101273.13
2022-11-27T21:39:38.454Z,101264.47
2022-11-27T21:42:05.029Z,101261.03
2022-11-27T21:44:31.471Z,101262.06
2022-11-27T21:46:59.878Z,101259.22
2022-11-27T21:49:26.496Z,101259.03
2022-11-27T21:51:53.908Z,101260.63
2022-11-27T21:54:20.595Z,101251.97
2022-11-27T21:56:50.613Z,101247.75
2022-11-27T21:59:17.183Z,101246.72
2022-11-27T22:01:45.499Z,101244.13
2022-11-27T22:04:12.217Z,101248.53
2022-11-27T22:06:40.909Z,101250.16
2022-11-27T22:09:13.584Z,101244.91
2022-11-27T22:11:41.951Z,101241.50
2022-11-27T22:14:09.061Z,101233.63
2022-11-27T22:16:44.458Z,101229.81
2022-11-27T22:19:12.305Z,101227.97
2022-11-27T22:21:38.771Z,101219.31
2022-11-27T22:24:05.479Z,101217.50
2022-11-27T22:26:32.025Z,101210.25
2022-11-27T22:28:59.240Z,101200.78
2022-11-27T22:31:31.215Z,101198.97
2022-11-27T22:33:57.932Z,101198.97
2022-11-27T22:36:32.501Z,101186.06
2022-11-27T22:39:02.251Z,101185.06
2022-11-27T22:41:30.958Z,101181.44
2022-11-27T22:44:00.226Z,101174.38
2022-11-27T22:46:32.385Z,101159.88
2022-11-27T22:49:01.126Z,101170.34
2022-11-27T22:51:29.720Z,101161.47
2022-11-27T22:53:56.233Z,101162.06
2022-11-27T22:56:22.952Z,101149.38
2022-11-27T22:58:52.760Z,101162.28
2022-11-27T23:01:26.061Z,101156.84
2022-11-27T23:03:53.305Z,101173.16
2022-11-27T23:06:22.238Z,101165.50
2022-11-27T23:08:50.050Z,101162.69
2022-11-27T23:11:22.137Z,101157.44
2022-11-27T23:13:50.014Z,101146.75
2022-11-27T23:16:17.291Z,101152.75
2022-11-27T23:18:43.931Z,101150.53
2022-11-27T23:21:16.601Z,101138.66
2022-11-27T23:23:43.832Z,101141.88
2022-11-27T23:26:17.898Z,101158.38
2022-11-27T23:28:45.512Z,101150.31
2022-11-27T23:31:29.466Z,101139.84
2022-11-27T23:33:57.522Z,101144.06
2022-11-27T23:36:24.354Z,101138.03
2022-11-27T23:38:50.847Z,101129.97
2022-11-27T23:41:25.054Z,101132.78
2022-11-27T23:43:52.948Z,101130.75
2022-11-27T23:46:21.942Z,101131.56
2022-11-27T23:48:48.796Z,101123.72
2022-11-27T23:51:21.056Z,101121.09
2022-11-27T23:53:48.191Z,101114.84
2022-11-27T23:56:17.859Z,101125.09
2022-11-27T23:58:47.309Z,101119.66
